Terminal Aerodrome Forecast
Issued by NWS

Home | Current Version | Previous Version | Text Only | Print | Product List | Glossary On
Versions: 1 2 3 4 5 6 7 8 9 10 11 12 13 14 15 16 17 18 19 20 21 22 23 24 25
000
FTUS43 KDTX 271126
TAFYIP
TAF
KYIP 271126Z 2712/2812 33008KT P6SM SCT028 BKN035 OVC060
     FM271300 35010KT P6SM BKN028 OVC050
     FM271700 35011KT P6SM BKN040
     FM280100 03006KT P6SM SCT045 BKN060=

USA.gov is the U.S. government's official web portal to all federal, state and local government web resources and services.